sensor_id;sensor_type;location;lat;lon;timestamp;temperature;humidity
8487;DHT22;4280;50.534;8.708;2022-09-19T00:02:29;8.10;99.90
8487;DHT22;4280;50.534;8.708;2022-09-19T00:04:59;8.20;99.90
8487;DHT22;4280;50.534;8.708;2022-09-19T00:07:28;8.20;99.90
8487;DHT22;4280;50.534;8.708;2022-09-19T00:09:59;8.30;99.90
8487;DHT22;4280;50.534;8.708;2022-09-19T00:12:29;8.40;99.90
8487;DHT22;4280;50.534;8.708;2022-09-19T00:14:58;8.40;99.90
8487;DHT22;4280;50.534;8.708;2022-09-19T00:17:31;8.50;99.90
8487;DHT22;4280;50.534;8.708;2022-09-19T00:20:01;8.50;99.90
8487;DHT22;4280;50.534;8.708;2022-09-19T00:22:31;8.50;99.90
8487;DHT22;4280;50.534;8.708;2022-09-19T00:25:01;8.60;99.90
8487;DHT22;4280;50.534;8.708;2022-09-19T00:27:29;8.60;99.90
8487;DHT22;4280;50.534;8.708;2022-09-19T00:29:59;8.70;99.90
8487;DHT22;4280;50.534;8.708;2022-09-19T00:32:31;8.70;99.90
8487;DHT22;4280;50.534;8.708;2022-09-19T00:35:01;8.70;99.90
8487;DHT22;4280;50.534;8.708;2022-09-19T00:37:33;8.80;99.90
8487;DHT22;4280;50.534;8.708;2022-09-19T00:40:04;8.80;99.90
8487;DHT22;4280;50.534;8.708;2022-09-19T00:42:34;8.80;99.90
8487;DHT22;4280;50.534;8.708;2022-09-19T00:45:06;8.90;99.90
8487;DHT22;4280;50.534;8.708;2022-09-19T00:47:40;8.90;99.90
8487;DHT22;4280;50.534;8.708;2022-09-19T00:50:16;8.90;99.90
8487;DHT22;4280;50.534;8.708;2022-09-19T00:52:50;8.90;99.90
8487;DHT22;4280;50.534;8.708;2022-09-19T00:55:22;8.90;99.90
8487;DHT22;4280;50.534;8.708;2022-09-19T00:58:00;8.90;99.90
8487;DHT22;4280;50.534;8.708;2022-09-19T01:00:32;8.90;99.90
8487;DHT22;4280;50.534;8.708;2022-09-19T01:03:06;8.80;99.90
8487;DHT22;4280;50.534;8.708;2022-09-19T01:05:40;8.80;99.90
8487;DHT22;4280;50.534;8.708;2022-09-19T01:08:19;8.90;99.90
8487;DHT22;4280;50.534;8.708;2022-09-19T01:11:13;8.90;99.90
8487;DHT22;4280;50.534;8.708;2022-09-19T01:13:53;8.90;99.90
8487;DHT22;4280;50.534;8.708;2022-09-19T01:16:28;9.00;99.90
8487;DHT22;4280;50.534;8.708;2022-09-19T01:19:08;9.00;99.90
8487;DHT22;4280;50.534;8.708;2022-09-19T01:21:47;9.10;99.90
8487;DHT22;4280;50.534;8.708;2022-09-19T01:30:46;9.20;99.90
8487;DHT22;4280;50.534;8.708;2022-09-19T01:33:41;9.20;99.90
8487;DHT22;4280;50.534;8.708;2022-09-19T01:36:15;9.30;99.90
8487;DHT22;4280;50.534;8.708;2022-09-19T01:38:46;9.30;99.90
8487;DHT22;4280;50.534;8.708;2022-09-19T01:41:22;9.30;99.90
8487;DHT22;4280;50.534;8.708;2022-09-19T01:43:52;9.30;99.90
8487;DHT22;4280;50.534;8.708;2022-09-19T01:46:26;9.30;99.90
8487;DHT22;4280;50.534;8.708;2022-09-19T01:49:04;9.30;99.90
8487;DHT22;4280;50.534;8.708;2022-09-19T01:51:45;9.30;99.90
8487;DHT22;4280;50.534;8.708;2022-09-19T01:57:13;9.30;99.90
8487;DHT22;4280;50.534;8.708;2022-09-19T01:59:54;9.30;99.90
8487;DHT22;4280;50.534;8.708;2022-09-19T02:02:47;9.40;99.90
8487;DHT22;4280;50.534;8.708;2022-09-19T02:05:26;9.40;99.90
8487;DHT22;4280;50.534;8.708;2022-09-19T02:08:04;9.40;99.90
8487;DHT22;4280;50.534;8.708;2022-09-19T02:10:38;9.50;99.90
8487;DHT22;4280;50.534;8.708;2022-09-19T02:13:10;9.50;99.90
8487;DHT22;4280;50.534;8.708;2022-09-19T02:16:01;9.50;99.90
8487;DHT22;4280;50.534;8.708;2022-09-19T02:18:40;9.50;99.90
8487;DHT22;4280;50.534;8.708;2022-09-19T02:21:16;9.60;99.90
8487;DHT22;4280;50.534;8.708;2022-09-19T02:23:52;9.60;99.90
8487;DHT22;4280;50.534;8.708;2022-09-19T02:26:32;9.60;99.90
8487;DHT22;4280;50.534;8.708;2022-09-19T02:29:03;9.50;99.90
8487;DHT22;4280;50.534;8.708;2022-09-19T02:31:35;9.50;99.90
8487;DHT22;4280;50.534;8.708;2022-09-19T02:34:08;9.50;99.90
8487;DHT22;4280;50.534;8.708;2022-09-19T02:36:41;9.50;99.90
8487;DHT22;4280;50.534;8.708;2022-09-19T02:39:14;9.50;99.90
8487;DHT22;4280;50.534;8.708;2022-09-19T02:42:17;9.50;99.90
8487;DHT22;4280;50.534;8.708;2022-09-19T02:44:53;9.40;99.90
8487;DHT22;4280;50.534;8.708;2022-09-19T02:47:31;9.40;99.90
8487;DHT22;4280;50.534;8.708;2022-09-19T02:50:07;9.40;99.90
8487;DHT22;4280;50.534;8.708;2022-09-19T02:52:39;9.40;99.90
8487;DHT22;4280;50.534;8.708;2022-09-19T02:55:17;9.40;99.90
8487;DHT22;4280;50.534;8.708;2022-09-19T02:57:50;9.50;99.90
8487;DHT22;4280;50.534;8.708;2022-09-19T03:00:26;9.40;99.90
8487;DHT22;4280;50.534;8.708;2022-09-19T03:02:57;9.50;99.90
8487;DHT22;4280;50.534;8.708;2022-09-19T03:05:52;9.40;99.90
8487;DHT22;4280;50.534;8.708;2022-09-19T03:08:23;9.40;99.90
8487;DHT22;4280;50.534;8.708;2022-09-19T03:10:57;9.40;99.90
8487;DHT22;4280;50.534;8.708;2022-09-19T03:13:32;9.30;99.90
8487;DHT22;4280;50.534;8.708;2022-09-19T03:16:05;9.30;99.90
8487;DHT22;4280;50.534;8.708;2022-09-19T03:18:36;9.30;99.90
8487;DHT22;4280;50.534;8.708;2022-09-19T03:21:11;9.40;99.90
8487;DHT22;4280;50.534;8.708;2022-09-19T03:23:44;9.40;99.90
8487;DHT22;4280;50.534;8.708;2022-09-19T03:26:22;9.40;99.90
8487;DHT22;4280;50.534;8.708;2022-09-19T03:28:53;9.40;99.90
8487;DHT22;4280;50.534;8.708;2022-09-19T03:31:27;9.40;99.90
8487;DHT22;4280;50.534;8.708;2022-09-19T03:33:59;9.40;99.90
8487;DHT22;4280;50.534;8.708;2022-09-19T03:36:32;9.40;99.90
8487;DHT22;4280;50.534;8.708;2022-09-19T03:39:05;9.40;99.90
8487;DHT22;4280;50.534;8.708;2022-09-19T03:41:39;9.50;99.90
8487;DHT22;4280;50.534;8.708;2022-09-19T03:44:10;9.50;99.90
8487;DHT22;4280;50.534;8.708;2022-09-19T03:46:41;9.50;99.90
8487;DHT22;4280;50.534;8.708;2022-09-19T03:49:13;9.60;99.90
8487;DHT22;4280;50.534;8.708;2022-09-19T03:51:46;9.60;99.90
8487;DHT22;4280;50.534;8.708;2022-09-19T03:54:16;9.60;99.90
8487;DHT22;4280;50.534;8.708;2022-09-19T03:56:46;9.60;99.90
8487;DHT22;4280;50.534;8.708;2022-09-19T03:59:16;9.50;99.90
8487;DHT22;4280;50.534;8.708;2022-09-19T04:01:46;9.50;99.90
8487;DHT22;4280;50.534;8.708;2022-09-19T04:04:21;9.50;99.90
8487;DHT22;4280;50.534;8.708;2022-09-19T04:06:57;9.50;99.90
8487;DHT22;4280;50.534;8.708;2022-09-19T04:09:28;9.40;99.90
8487;DHT22;4280;50.534;8.708;2022-09-19T04:12:01;9.40;99.90
8487;DHT22;4280;50.534;8.708;2022-09-19T04:14:35;9.40;99.90
8487;DHT22;4280;50.534;8.708;2022-09-19T04:17:05;9.40;99.90
8487;DHT22;4280;50.534;8.708;2022-09-19T04:19:48;9.40;99.90
8487;DHT22;4280;50.534;8.708;2022-09-19T04:22:29;9.40;99.90
8487;DHT22;4280;50.534;8.708;2022-09-19T04:25:19;9.50;99.90
8487;DHT22;4280;50.534;8.708;2022-09-19T04:28:10;9.50;99.90
8487;DHT22;4280;50.534;8.708;2022-09-19T04:30:41;9.50;99.90
8487;DHT22;4280;50.534;8.708;2022-09-19T04:33:11;9.60;99.90
8487;DHT22;4280;50.534;8.708;2022-09-19T04:35:42;9.60;99.90
8487;DHT22;4280;50.534;8.708;2022-09-19T04:38:16;9.70;99.90
8487;DHT22;4280;50.534;8.708;2022-09-19T04:40:51;9.70;99.90
8487;DHT22;4280;50.534;8.708;2022-09-19T04:43:26;9.70;99.90
8487;DHT22;4280;50.534;8.708;2022-09-19T04:46:10;9.70;99.90
8487;DHT22;4280;50.534;8.708;2022-09-19T04:48:45;9.70;99.90
8487;DHT22;4280;50.534;8.708;2022-09-19T04:51:18;9.60;99.90
8487;DHT22;4280;50.534;8.708;2022-09-19T04:53:51;9.70;99.90
8487;DHT22;4280;50.534;8.708;2022-09-19T04:56:22;9.60;99.90
8487;DHT22;4280;50.534;8.708;2022-09-19T04:58:53;9.60;99.90
8487;DHT22;4280;50.534;8.708;2022-09-19T05:01:26;9.50;99.90
8487;DHT22;4280;50.534;8.708;2022-09-19T05:03:58;9.50;99.90
8487;DHT22;4280;50.534;8.708;2022-09-19T05:06:31;9.50;99.90
8487;DHT22;4280;50.534;8.708;2022-09-19T05:09:05;9.50;99.90
8487;DHT22;4280;50.534;8.708;2022-09-19T05:11:43;9.40;99.90
8487;DHT22;4280;50.534;8.708;2022-09-19T05:14:13;9.40;99.90
8487;DHT22;4280;50.534;8.708;2022-09-19T05:16:52;9.40;99.90
8487;DHT22;4280;50.534;8.708;2022-09-19T05:19:22;9.30;99.90
8487;DHT22;4280;50.534;8.708;2022-09-19T05:21:54;9.30;99.90
8487;DHT22;4280;50.534;8.708;2022-09-19T05:24:26;9.20;99.90
8487;DHT22;4280;50.534;8.708;2022-09-19T05:26:57;9.20;99.90
8487;DHT22;4280;50.534;8.708;2022-09-19T05:29:28;9.20;99.90
8487;DHT22;4280;50.534;8.708;2022-09-19T05:31:59;9.20;99.90
8487;DHT22;4280;50.534;8.708;2022-09-19T05:34:40;9.20;99.90
8487;DHT22;4280;50.534;8.708;2022-09-19T05:37:30;9.10;99.90
8487;DHT22;4280;50.534;8.708;2022-09-19T05:40:15;9.10;99.90
8487;DHT22;4280;50.534;8.708;2022-09-19T05:42:55;9.10;99.90
8487;DHT22;4280;50.534;8.708;2022-09-19T05:45:29;9.10;99.90
8487;DHT22;4280;50.534;8.708;2022-09-19T05:48:01;9.10;99.90
8487;DHT22;4280;50.534;8.708;2022-09-19T05:50:34;9.10;99.90
8487;DHT22;4280;50.534;8.708;2022-09-19T05:53:05;9.10;99.90
8487;DHT22;4280;50.534;8.708;2022-09-19T05:55:50;9.10;99.90
8487;DHT22;4280;50.534;8.708;2022-09-19T05:58:45;9.10;99.90
8487;DHT22;4280;50.534;8.708;2022-09-19T06:01:16;9.20;99.90
8487;DHT22;4280;50.534;8.708;2022-09-19T06:03:46;9.30;99.90
8487;DHT22;4280;50.534;8.708;2022-09-19T06:06:17;9.40;99.90
8487;DHT22;4280;50.534;8.708;2022-09-19T06:08:53;9.50;99.90
8487;DHT22;4280;50.534;8.708;2022-09-19T06:11:32;9.60;99.90
8487;DHT22;4280;50.534;8.708;2022-09-19T06:14:03;9.70;99.90
8487;DHT22;4280;50.534;8.708;2022-09-19T06:16:50;9.80;99.90
8487;DHT22;4280;50.534;8.708;2022-09-19T06:19:52;9.90;99.90
8487;DHT22;4280;50.534;8.708;2022-09-19T06:22:25;10.00;99.90
8487;DHT22;4280;50.534;8.708;2022-09-19T06:24:56;10.10;99.90
8487;DHT22;4280;50.534;8.708;2022-09-19T06:27:29;10.10;99.90
8487;DHT22;4280;50.534;8.708;2022-09-19T06:29:59;10.10;99.90
8487;DHT22;4280;50.534;8.708;2022-09-19T06:32:48;10.10;99.90
8487;DHT22;4280;50.534;8.708;2022-09-19T06:35:18;10.20;99.90
8487;DHT22;4280;50.534;8.708;2022-09-19T06:37:49;10.20;99.90
8487;DHT22;4280;50.534;8.708;2022-09-19T06:40:19;10.30;99.90
8487;DHT22;4280;50.534;8.708;2022-09-19T06:43:05;10.40;99.90
8487;DHT22;4280;50.534;8.708;2022-09-19T06:45:54;10.50;99.90
8487;DHT22;4280;50.534;8.708;2022-09-19T06:48:59;10.70;99.90
8487;DHT22;4280;50.534;8.708;2022-09-19T06:51:35;10.70;99.90
8487;DHT22;4280;50.534;8.708;2022-09-19T06:56:49;11.00;99.90
8487;DHT22;4280;50.534;8.708;2022-09-19T06:59:22;11.10;99.90
8487;DHT22;4280;50.534;8.708;2022-09-19T07:01:52;11.20;99.90
8487;DHT22;4280;50.534;8.708;2022-09-19T07:04:22;11.30;99.90
8487;DHT22;4280;50.534;8.708;2022-09-19T07:07:02;11.20;99.90
8487;DHT22;4280;50.534;8.708;2022-09-19T07:09:36;11.20;99.90
8487;DHT22;4280;50.534;8.708;2022-09-19T07:12:07;11.30;99.90
8487;DHT22;4280;50.534;8.708;2022-09-19T07:14:42;11.30;99.90
8487;DHT22;4280;50.534;8.708;2022-09-19T07:17:13;11.30;99.90
8487;DHT22;4280;50.534;8.708;2022-09-19T07:19:46;11.40;99.90
8487;DHT22;4280;50.534;8.708;2022-09-19T07:22:37;11.40;99.90
8487;DHT22;4280;50.534;8.708;2022-09-19T07:25:27;11.60;99.90
8487;DHT22;4280;50.534;8.708;2022-09-19T07:28:00;11.60;99.90
8487;DHT22;4280;50.534;8.708;2022-09-19T07:30:37;11.70;99.90
8487;DHT22;4280;50.534;8.708;2022-09-19T07:33:10;11.80;99.90
8487;DHT22;4280;50.534;8.708;2022-09-19T07:35:41;11.90;99.90
8487;DHT22;4280;50.534;8.708;2022-09-19T07:38:11;12.00;99.90
8487;DHT22;4280;50.534;8.708;2022-09-19T07:41:05;12.00;99.90
8487;DHT22;4280;50.534;8.708;2022-09-19T07:43:49;11.90;99.90
8487;DHT22;4280;50.534;8.708;2022-09-19T07:46:40;12.00;99.90
8487;DHT22;4280;50.534;8.708;2022-09-19T07:49:47;12.20;99.90
8487;DHT22;4280;50.534;8.708;2022-09-19T07:52:34;12.20;99.90
8487;DHT22;4280;50.534;8.708;2022-09-19T07:55:10;12.40;99.90
8487;DHT22;4280;50.534;8.708;2022-09-19T07:57:48;12.30;99.90
8487;DHT22;4280;50.534;8.708;2022-09-19T08:00:22;12.30;99.90
8487;DHT22;4280;50.534;8.708;2022-09-19T08:02:59;12.30;99.90
8487;DHT22;4280;50.534;8.708;2022-09-19T08:05:31;12.30;99.90
8487;DHT22;4280;50.534;8.708;2022-09-19T08:08:03;12.30;99.90
8487;DHT22;4280;50.534;8.708;2022-09-19T08:10:34;12.40;99.90
8487;DHT22;4280;50.534;8.708;2022-09-19T08:13:04;12.40;99.90
8487;DHT22;4280;50.534;8.708;2022-09-19T08:15:35;12.60;99.90
8487;DHT22;4280;50.534;8.708;2022-09-19T08:18:10;12.60;99.90
8487;DHT22;4280;50.534;8.708;2022-09-19T08:20:41;12.70;99.90
8487;DHT22;4280;50.534;8.708;2022-09-19T08:23:13;12.70;99.90
8487;DHT22;4280;50.534;8.708;2022-09-19T08:25:45;12.60;99.90
8487;DHT22;4280;50.534;8.708;2022-09-19T08:28:19;12.50;99.90
8487;DHT22;4280;50.534;8.708;2022-09-19T08:30:57;12.70;99.90
8487;DHT22;4280;50.534;8.708;2022-09-19T08:33:34;12.70;99.90
8487;DHT22;4280;50.534;8.708;2022-09-19T08:36:07;12.70;99.90
8487;DHT22;4280;50.534;8.708;2022-09-19T08:38:37;12.90;99.90
8487;DHT22;4280;50.534;8.708;2022-09-19T08:41:14;13.10;98.20
8487;DHT22;4280;50.534;8.708;2022-09-19T08:44:08;13.10;96.20
8487;DHT22;4280;50.534;8.708;2022-09-19T08:46:42;13.30;98.00
8487;DHT22;4280;50.534;8.708;2022-09-19T08:49:19;13.50;96.40
8487;DHT22;4280;50.534;8.708;2022-09-19T08:51:52;13.50;95.40
8487;DHT22;4280;50.534;8.708;2022-09-19T08:54:26;13.40;94.40
8487;DHT22;4280;50.534;8.708;2022-09-19T08:57:03;13.40;94.60
8487;DHT22;4280;50.534;8.708;2022-09-19T08:59:35;13.60;94.40
8487;DHT22;4280;50.534;8.708;2022-09-19T09:02:16;13.50;93.60
8487;DHT22;4280;50.534;8.708;2022-09-19T09:05:02;13.40;93.70
8487;DHT22;4280;50.534;8.708;2022-09-19T09:07:36;13.50;91.90
8487;DHT22;4280;50.534;8.708;2022-09-19T09:10:39;13.60;92.30
8487;DHT22;4280;50.534;8.708;2022-09-19T09:13:22;13.60;91.50
8487;DHT22;4280;50.534;8.708;2022-09-19T09:16:15;13.60;93.80
8487;DHT22;4280;50.534;8.708;2022-09-19T09:18:55;13.50;91.90
8487;DHT22;4280;50.534;8.708;2022-09-19T09:21:39;13.50;94.00
8487;DHT22;4280;50.534;8.708;2022-09-19T09:24:14;13.40;95.20
8487;DHT22;4280;50.534;8.708;2022-09-19T09:27:10;13.20;98.00
8487;DHT22;4280;50.534;8.708;2022-09-19T09:29:43;13.30;97.70
8487;DHT22;4280;50.534;8.708;2022-09-19T09:32:23;13.40;95.00
8487;DHT22;4280;50.534;8.708;2022-09-19T09:34:58;13.50;94.80
8487;DHT22;4280;50.534;8.708;2022-09-19T09:37:36;13.60;96.50
8487;DHT22;4280;50.534;8.708;2022-09-19T09:40:11;14.00;96.10
8487;DHT22;4280;50.534;8.708;2022-09-19T09:43:08;13.90;92.60
8487;DHT22;4280;50.534;8.708;2022-09-19T09:45:47;13.80;94.90
8487;DHT22;4280;50.534;8.708;2022-09-19T09:48:29;13.90;92.10
8487;DHT22;4280;50.534;8.708;2022-09-19T09:51:09;13.80;93.00
8487;DHT22;4280;50.534;8.708;2022-09-19T09:57:19;14.00;90.80
8487;DHT22;4280;50.534;8.708;2022-09-19T09:59:57;14.00;89.50
8487;DHT22;4280;50.534;8.708;2022-09-19T10:02:50;14.10;88.60
8487;DHT22;4280;50.534;8.708;2022-09-19T10:05:41;13.90;80.70
8487;DHT22;4280;50.534;8.708;2022-09-19T10:08:15;13.70;80.80
8487;DHT22;4280;50.534;8.708;2022-09-19T10:10:49;13.60;84.00
8487;DHT22;4280;50.534;8.708;2022-09-19T10:13:24;13.60;84.10
8487;DHT22;4280;50.534;8.708;2022-09-19T10:15:58;13.60;85.70
8487;DHT22;4280;50.534;8.708;2022-09-19T10:18:35;13.80;84.20
8487;DHT22;4280;50.534;8.708;2022-09-19T10:21:14;13.90;84.50
8487;DHT22;4280;50.534;8.708;2022-09-19T10:23:48;14.00;80.60
8487;DHT22;4280;50.534;8.708;2022-09-19T10:26:25;14.10;77.40
8487;DHT22;4280;50.534;8.708;2022-09-19T10:29:04;14.20;74.00
8487;DHT22;4280;50.534;8.708;2022-09-19T10:32:12;14.30;74.10
8487;DHT22;4280;50.534;8.708;2022-09-19T10:35:19;14.40;67.90
8487;DHT22;4280;50.534;8.708;2022-09-19T10:37:59;14.30;68.80
8487;DHT22;4280;50.534;8.708;2022-09-19T10:40:29;14.40;70.60
8487;DHT22;4280;50.534;8.708;2022-09-19T10:43:00;14.40;69.30
8487;DHT22;4280;50.534;8.708;2022-09-19T10:45:34;14.50;70.50
8487;DHT22;4280;50.534;8.708;2022-09-19T10:48:11;14.50;68.70
8487;DHT22;4280;50.534;8.708;2022-09-19T10:50:44;14.90;63.70
8487;DHT22;4280;50.534;8.708;2022-09-19T10:53:17;15.40;64.00
8487;DHT22;4280;50.534;8.708;2022-09-19T10:55:49;15.40;58.80
8487;DHT22;4280;50.534;8.708;2022-09-19T10:58:20;15.20;57.60
8487;DHT22;4280;50.534;8.708;2022-09-19T11:01:25;15.50;59.40
8487;DHT22;4280;50.534;8.708;2022-09-19T11:04:00;15.40;53.80
8487;DHT22;4280;50.534;8.708;2022-09-19T11:06:32;15.40;52.40
8487;DHT22;4280;50.534;8.708;2022-09-19T11:09:06;15.30;53.40
8487;DHT22;4280;50.534;8.708;2022-09-19T11:11:41;15.30;54.70
8487;DHT22;4280;50.534;8.708;2022-09-19T11:14:30;15.50;52.50
8487;DHT22;4280;50.534;8.708;2022-09-19T11:17:22;15.40;51.10
8487;DHT22;4280;50.534;8.708;2022-09-19T11:20:09;15.10;52.20
8487;DHT22;4280;50.534;8.708;2022-09-19T11:26:08;15.40;52.40
8487;DHT22;4280;50.534;8.708;2022-09-19T11:28:48;15.30;45.30
8487;DHT22;4280;50.534;8.708;2022-09-19T11:31:28;15.30;50.00
8487;DHT22;4280;50.534;8.708;2022-09-19T11:34:28;15.10;46.60
8487;DHT22;4280;50.534;8.708;2022-09-19T11:37:27;15.30;44.40
8487;DHT22;4280;50.534;8.708;2022-09-19T11:40:16;15.70;41.90
8487;DHT22;4280;50.534;8.708;2022-09-19T11:42:52;16.10;38.40
8487;DHT22;4280;50.534;8.708;2022-09-19T11:45:30;15.90;35.70
8487;DHT22;4280;50.534;8.708;2022-09-19T11:48:15;15.80;38.50
8487;DHT22;4280;50.534;8.708;2022-09-19T11:50:57;15.80;38.90
8487;DHT22;4280;50.534;8.708;2022-09-19T21:58:24;15.70;38.70
8487;DHT22;4280;50.534;8.708;2022-09-19T22:00:54;10.00;99.90
8487;DHT22;4280;50.534;8.708;2022-09-19T22:03:26;10.00;99.90
8487;DHT22;4280;50.534;8.708;2022-09-19T22:05:58;10.00;99.90
8487;DHT22;4280;50.534;8.708;2022-09-19T22:08:29;10.10;99.90
8487;DHT22;4280;50.534;8.708;2022-09-19T22:11:01;10.10;99.90
8487;DHT22;4280;50.534;8.708;2022-09-19T22:13:34;10.20;99.90
8487;DHT22;4280;50.534;8.708;2022-09-19T22:16:05;10.20;99.90
8487;DHT22;4280;50.534;8.708;2022-09-19T22:18:36;10.20;99.90
8487;DHT22;4280;50.534;8.708;2022-09-19T22:21:06;10.20;99.90
8487;DHT22;4280;50.534;8.708;2022-09-19T22:23:37;10.10;99.90
8487;DHT22;4280;50.534;8.708;2022-09-19T22:26:08;10.00;99.90
8487;DHT22;4280;50.534;8.708;2022-09-19T22:28:42;10.00;99.90
8487;DHT22;4280;50.534;8.708;2022-09-19T22:31:12;9.90;99.90
8487;DHT22;4280;50.534;8.708;2022-09-19T22:33:45;9.80;99.90
8487;DHT22;4280;50.534;8.708;2022-09-19T22:36:18;9.70;99.90
8487;DHT22;4280;50.534;8.708;2022-09-19T22:38:49;9.50;99.90
8487;DHT22;4280;50.534;8.708;2022-09-19T22:41:19;9.50;99.90
8487;DHT22;4280;50.534;8.708;2022-09-19T22:43:52;9.50;99.90
8487;DHT22;4280;50.534;8.708;2022-09-19T22:46:23;9.50;99.90
8487;DHT22;4280;50.534;8.708;2022-09-19T22:48:54;9.40;99.90
8487;DHT22;4280;50.534;8.708;2022-09-19T22:51:24;9.40;99.90
8487;DHT22;4280;50.534;8.708;2022-09-19T22:53:57;9.30;99.90
8487;DHT22;4280;50.534;8.708;2022-09-19T22:56:27;9.30;99.90
8487;DHT22;4280;50.534;8.708;2022-09-19T22:59:01;9.30;99.90
8487;DHT22;4280;50.534;8.708;2022-09-19T23:01:32;9.40;99.90
8487;DHT22;4280;50.534;8.708;2022-09-19T23:04:02;9.40;99.90
8487;DHT22;4280;50.534;8.708;2022-09-19T23:06:36;9.40;99.90
8487;DHT22;4280;50.534;8.708;2022-09-19T23:09:09;9.40;99.90
8487;DHT22;4280;50.534;8.708;2022-09-19T23:11:41;9.40;99.90
8487;DHT22;4280;50.534;8.708;2022-09-19T23:14:14;9.40;99.90
8487;DHT22;4280;50.534;8.708;2022-09-19T23:16:50;9.30;99.90
8487;DHT22;4280;50.534;8.708;2022-09-19T23:19:21;9.30;99.90
8487;DHT22;4280;50.534;8.708;2022-09-19T23:21:52;9.20;99.90
8487;DHT22;4280;50.534;8.708;2022-09-19T23:24:23;9.10;99.90
8487;DHT22;4280;50.534;8.708;2022-09-19T23:26:55;9.00;99.90
8487;DHT22;4280;50.534;8.708;2022-09-19T23:29:29;9.00;99.90
8487;DHT22;4280;50.534;8.708;2022-09-19T23:32:00;8.90;99.90
8487;DHT22;4280;50.534;8.708;2022-09-19T23:34:31;8.90;99.90
8487;DHT22;4280;50.534;8.708;2022-09-19T23:37:01;9.00;99.90
8487;DHT22;4280;50.534;8.708;2022-09-19T23:39:31;9.10;99.90
8487;DHT22;4280;50.534;8.708;2022-09-19T23:42:01;9.10;99.90
8487;DHT22;4280;50.534;8.708;2022-09-19T23:44:33;9.10;99.90
8487;DHT22;4280;50.534;8.708;2022-09-19T23:47:03;9.10;99.90
8487;DHT22;4280;50.534;8.708;2022-09-19T23:49:33;9.00;99.90
8487;DHT22;4280;50.534;8.708;2022-09-19T23:52:03;8.90;99.90
8487;DHT22;4280;50.534;8.708;2022-09-19T23:54:33;8.70;99.90
8487;DHT22;4280;50.534;8.708;2022-09-19T23:57:04;8.70;99.90
8487;DHT22;4280;50.534;8.708;2022-09-19T23:59:36;8.60;99.90
